createdAt,value
2023-05-09T00:00:34.152Z,49.04
2023-05-09T00:03:06.367Z,48.39
2023-05-09T00:05:39.185Z,48.90
2023-05-09T00:08:12.145Z,49.23
2023-05-09T00:10:44.443Z,48.95
2023-05-09T00:13:16.646Z,48.95
2023-05-09T00:15:49.113Z,49.71
2023-05-09T00:18:22.423Z,49.40
2023-05-09T00:20:54.847Z,49.54
2023-05-09T00:23:26.990Z,49.32
2023-05-09T00:26:00.132Z,49.55
2023-05-09T00:28:32.644Z,49.40
2023-05-09T00:31:05.739Z,49.36
2023-05-09T00:33:37.865Z,49.45
2023-05-09T00:36:09.982Z,49.54
2023-05-09T00:38:42.086Z,49.90
2023-05-09T00:41:14.300Z,50.69
2023-05-09T00:43:46.738Z,50.12
2023-05-09T00:46:18.995Z,50.04
2023-05-09T00:48:52.650Z,49.41
2023-05-09T00:51:26.192Z,49.64
2023-05-09T00:53:59.004Z,50.08
2023-05-09T00:56:31.865Z,49.03
2023-05-09T00:59:04.407Z,49.97
2023-05-09T01:01:36.995Z,49.96
2023-05-09T01:04:09.203Z,49.25
2023-05-09T01:07:12.273Z,50.06
2023-05-09T01:09:59.084Z,49.46
2023-05-09T01:13:05.300Z,49.25
2023-05-09T01:15:45.222Z,49.51
2023-05-09T01:18:37.734Z,49.20
2023-05-09T01:21:16.633Z,49.31
2023-05-09T01:24:02.274Z,49.07
2023-05-09T01:27:02.351Z,48.64
2023-05-09T01:29:48.517Z,48.65
2023-05-09T01:32:27.084Z,48.74
2023-05-09T01:35:04.790Z,48.63
2023-05-09T01:37:42.688Z,48.30
2023-05-09T01:40:17.938Z,47.96
2023-05-09T01:43:01.558Z,47.71
2023-05-09T01:45:34.368Z,47.88
2023-05-09T01:48:09.004Z,48.49
2023-05-09T01:50:43.996Z,48.11
2023-05-09T01:53:17.793Z,49.03
2023-05-09T01:55:52.137Z,48.62
2023-05-09T01:58:26.240Z,48.66
2023-05-09T02:00:59.837Z,47.54
2023-05-09T02:03:34.326Z,47.89
2023-05-09T02:06:11.192Z,46.88
2023-05-09T02:08:44.175Z,47.55
2023-05-09T02:11:16.686Z,48.17
2023-05-09T02:13:49.028Z,47.05
2023-05-09T02:16:21.448Z,47.37
2023-05-09T02:18:53.798Z,47.42
2023-05-09T02:21:27.316Z,47.95
2023-05-09T02:24:01.375Z,47.40
2023-05-09T02:26:34.646Z,47.39
2023-05-09T02:29:08.518Z,48.14
2023-05-09T02:31:42.858Z,47.91
2023-05-09T02:34:16.464Z,48.37
2023-05-09T02:36:49.007Z,47.78
2023-05-09T02:39:21.267Z,48.58
2023-05-09T02:41:53.504Z,48.46
2023-05-09T02:44:25.576Z,49.10
2023-05-09T02:46:57.920Z,48.54
2023-05-09T02:49:32.465Z,48.75
2023-05-09T02:52:05.423Z,48.44
2023-05-09T02:54:38.670Z,48.78
2023-05-09T02:57:10.859Z,48.82
2023-05-09T02:59:43.072Z,49.08
2023-05-09T03:02:15.487Z,48.48
2023-05-09T03:04:47.575Z,48.71
2023-05-09T03:07:19.760Z,48.64
2023-05-09T03:09:51.844Z,49.42
2023-05-09T03:12:24.406Z,49.42
2023-05-09T03:14:57.202Z,49.10
2023-05-09T03:17:29.304Z,49.27
2023-05-09T03:20:04.262Z,49.35
2023-05-09T03:22:37.056Z,49.17
2023-05-09T03:25:10.671Z,49.37
2023-05-09T03:27:43.005Z,49.73
2023-05-09T03:30:15.391Z,49.26
2023-05-09T03:32:47.657Z,49.77
2023-05-09T03:35:20.078Z,49.98
2023-05-09T03:37:52.178Z,49.94
2023-05-09T03:40:27.249Z,50.13
2023-05-09T03:42:59.494Z,51.31
2023-05-09T03:45:31.708Z,50.16
2023-05-09T03:48:05.608Z,50.98
2023-05-09T03:50:38.250Z,50.72
2023-05-09T03:53:10.572Z,52.17
2023-05-09T03:55:45.150Z,51.06
2023-05-09T03:58:19.524Z,50.80
2023-05-09T04:00:51.676Z,51.41
2023-05-09T04:03:24.042Z,50.88
2023-05-09T04:05:56.596Z,51.50
2023-05-09T04:08:28.901Z,52.45
2023-05-09T04:11:01.323Z,51.58
2023-05-09T04:13:34.499Z,52.30
2023-05-09T04:16:06.796Z,51.55
2023-05-09T04:18:42.359Z,52.30
2023-05-09T04:21:14.552Z,52.88
2023-05-09T04:23:46.719Z,52.89
2023-05-09T04:26:18.820Z,52.24
2023-05-09T04:28:51.178Z,52.25
2023-05-09T04:31:23.662Z,52.94
2023-05-09T04:33:56.092Z,54.80
2023-05-09T04:36:29.106Z,53.36
2023-05-09T04:39:04.386Z,54.14
2023-05-09T04:41:36.944Z,53.34
2023-05-09T04:44:09.334Z,54.40
2023-05-09T04:46:41.533Z,55.22
2023-05-09T04:49:13.842Z,54.26
2023-05-09T04:51:46.114Z,54.70
2023-05-09T04:54:18.308Z,54.58
2023-05-09T04:56:50.750Z,54.88
2023-05-09T04:59:23.671Z,54.92
2023-05-09T05:01:55.843Z,55.31
2023-05-09T05:04:28.453Z,54.95
2023-05-09T05:07:00.698Z,54.76
2023-05-09T05:09:32.779Z,54.14
2023-05-09T05:12:09.370Z,54.48
2023-05-09T05:14:42.114Z,54.70
2023-05-09T05:17:14.332Z,55.01
2023-05-09T05:19:46.568Z,54.53
2023-05-09T05:22:18.837Z,54.53
2023-05-09T05:24:51.132Z,55.14
2023-05-09T05:27:23.269Z,54.57
2023-05-09T05:29:56.814Z,54.39
2023-05-09T05:32:28.899Z,54.23
2023-05-09T05:35:02.796Z,54.50
2023-05-09T05:37:35.004Z,54.65
2023-05-09T05:40:08.280Z,55.41
2023-05-09T05:42:40.497Z,54.65
2023-05-09T05:45:13.126Z,54.77
2023-05-09T05:47:45.849Z,54.27
2023-05-09T05:50:18.531Z,55.44
2023-05-09T05:52:50.939Z,55.17
2023-05-09T05:55:23.075Z,54.66
2023-05-09T05:57:55.183Z,54.27
2023-05-09T06:00:27.659Z,54.44
2023-05-09T06:02:59.910Z,54.78
2023-05-09T06:05:32.398Z,54.10
2023-05-09T06:08:05.001Z,53.93
2023-05-09T06:10:37.234Z,55.18
2023-05-09T06:13:11.290Z,55.25
2023-05-09T06:15:43.970Z,54.77
2023-05-09T06:18:16.110Z,55.67
2023-05-09T06:20:48.249Z,55.83
2023-05-09T06:23:22.431Z,55.31
2023-05-09T06:25:54.532Z,54.67
2023-05-09T06:28:27.169Z,55.38
2023-05-09T06:30:59.344Z,56.50
2023-05-09T06:33:31.967Z,56.03
2023-05-09T06:36:04.568Z,55.85
2023-05-09T06:38:36.784Z,55.77
2023-05-09T06:41:08.891Z,56.14
2023-05-09T06:43:40.993Z,56.45
2023-05-09T06:46:13.218Z,56.38
2023-05-09T06:48:45.605Z,56.50
2023-05-09T06:51:17.683Z,55.78
2023-05-09T06:53:49.950Z,56.38
2023-05-09T06:56:25.211Z,56.01
2023-05-09T06:58:57.420Z,56.17
2023-05-09T07:01:29.638Z,56.57
2023-05-09T07:04:01.928Z,55.61
2023-05-09T07:06:34.299Z,56.15
2023-05-09T07:09:06.486Z,56.94
2023-05-09T07:11:38.639Z,56.67
2023-05-09T07:14:13.324Z,56.15
2023-05-09T07:16:48.091Z,55.38
2023-05-09T07:19:21.402Z,55.03
2023-05-09T07:21:53.631Z,54.80
2023-05-09T07:24:25.782Z,55.34
2023-05-09T07:27:01.672Z,55.30
2023-05-09T07:29:33.835Z,54.58
2023-05-09T07:32:06.456Z,53.86
2023-05-09T07:34:38.713Z,54.05
2023-05-09T07:37:11.274Z,53.67
2023-05-09T07:39:44.478Z,53.80
2023-05-09T07:42:16.746Z,53.26
2023-05-09T07:44:48.890Z,52.07
2023-05-09T07:47:21.492Z,52.62
2023-05-09T07:49:56.483Z,52.72
2023-05-09T07:52:29.233Z,51.31
2023-05-09T07:55:01.978Z,51.65
2023-05-09T07:57:34.129Z,49.66
2023-05-09T08:00:08.344Z,46.80
2023-05-09T08:02:40.977Z,44.84
2023-05-09T08:05:14.623Z,41.46
2023-05-09T08:07:47.235Z,40.21
2023-05-09T08:10:19.695Z,40.15
2023-05-09T08:12:51.918Z,39.76
2023-05-09T08:15:24.273Z,39.67
2023-05-09T08:17:56.442Z,40.12
2023-05-09T08:20:28.592Z,42.18
2023-05-09T08:23:00.977Z,41.43
2023-05-09T08:25:33.834Z,41.58
2023-05-09T08:28:06.140Z,41.39
2023-05-09T08:30:38.334Z,41.25
2023-05-09T08:33:10.830Z,41.08
2023-05-09T08:35:43.367Z,38.49
2023-05-09T08:38:15.686Z,39.44
2023-05-09T08:40:48.591Z,39.80
2023-05-09T08:43:24.106Z,40.21
2023-05-09T08:46:07.873Z,40.32
2023-05-09T08:48:41.508Z,40.11
2023-05-09T08:51:14.281Z,39.75
2023-05-09T08:53:46.792Z,39.64
2023-05-09T08:56:19.441Z,40.79
2023-05-09T08:58:53.281Z,40.73
2023-05-09T09:01:27.110Z,39.65
2023-05-09T09:04:00.963Z,39.80
2023-05-09T09:06:36.900Z,38.49
2023-05-09T09:09:09.950Z,38.34
2023-05-09T09:11:43.125Z,37.52
2023-05-09T09:14:27.955Z,37.13
2023-05-09T09:17:01.294Z,37.18
2023-05-09T09:19:36.123Z,36.52
2023-05-09T09:22:12.741Z,36.19
2023-05-09T09:24:45.181Z,35.13
2023-05-09T09:27:17.539Z,36.17
2023-05-09T09:29:49.813Z,36.03
2023-05-09T09:32:33.243Z,36.13
2023-05-09T09:35:12.049Z,37.05
2023-05-09T09:37:44.108Z,38.03
2023-05-09T09:40:17.360Z,37.18
2023-05-09T09:42:52.056Z,37.79
2023-05-09T09:45:24.292Z,37.41
2023-05-09T09:47:56.712Z,35.85
2023-05-09T09:50:28.972Z,34.98
2023-05-09T09:53:01.237Z,34.42
2023-05-09T09:55:35.943Z,34.61
2023-05-09T09:58:25.254Z,33.44
2023-05-09T10:01:14.263Z,33.41
2023-05-09T10:03:47.137Z,32.64
2023-05-09T10:06:19.281Z,32.12
2023-05-09T10:08:51.962Z,30.89
2023-05-09T10:11:24.729Z,31.01
2023-05-09T10:13:56.938Z,30.67
2023-05-09T10:16:40.210Z,30.09
2023-05-09T10:19:21.707Z,30.06
2023-05-09T10:22:18.104Z,30.22
2023-05-09T10:25:13.538Z,31.02
2023-05-09T10:27:47.434Z,31.08
2023-05-09T10:30:23.858Z,31.20
2023-05-09T10:33:11.571Z,31.64
2023-05-09T10:35:48.631Z,31.49
2023-05-09T10:38:21.452Z,30.84
2023-05-09T10:40:55.995Z,29.87
2023-05-09T10:43:28.954Z,30.81
2023-05-09T10:46:02.960Z,30.14
2023-05-09T10:48:36.626Z,30.81
2023-05-09T10:51:09.875Z,31.69
2023-05-09T10:53:50.094Z,30.45
2023-05-09T10:56:33.912Z,30.57
2023-05-09T10:59:06.137Z,30.78
2023-05-09T11:01:39.808Z,30.73
2023-05-09T11:04:14.886Z,29.69
2023-05-09T11:06:56.437Z,28.41
2023-05-09T11:09:41.725Z,29.50
2023-05-09T11:12:22.167Z,28.58
2023-05-09T11:15:07.517Z,28.91
2023-05-09T11:17:40.595Z,29.09
2023-05-09T11:20:12.939Z,28.82
2023-05-09T11:22:47.354Z,27.95
2023-05-09T11:25:28.666Z,28.70
2023-05-09T11:28:03.819Z,27.55
2023-05-09T11:30:44.073Z,27.72
2023-05-09T11:33:25.009Z,28.51
2023-05-09T11:36:28.119Z,27.93
2023-05-09T11:39:04.656Z,28.86
2023-05-09T11:41:47.059Z,27.75
2023-05-09T11:44:21.696Z,28.49
2023-05-09T11:46:54.022Z,30.24
2023-05-09T11:49:28.489Z,29.45
2023-05-09T11:52:00.831Z,29.79
2023-05-09T11:54:32.901Z,28.59
2023-05-09T11:57:06.070Z,29.33
2023-05-09T11:59:39.114Z,30.52
2023-05-09T12:02:12.316Z,30.56
2023-05-09T12:04:44.580Z,31.30
2023-05-09T12:07:17.451Z,32.12
2023-05-09T12:09:50.710Z,32.34
2023-05-09T12:12:23.020Z,31.49
2023-05-09T12:14:56.304Z,30.81
2023-05-09T12:17:28.442Z,30.34
2023-05-09T12:20:01.483Z,31.63
2023-05-09T12:22:34.424Z,29.24
2023-05-09T12:25:10.605Z,29.65
2023-05-09T12:27:42.848Z,29.48
2023-05-09T12:30:16.341Z,30.52
2023-05-09T12:32:48.549Z,31.53
2023-05-09T12:35:23.822Z,32.12
2023-05-09T12:37:59.079Z,31.86
2023-05-09T12:40:31.580Z,31.92
2023-05-09T12:43:04.580Z,32.73
2023-05-09T12:45:39.568Z,34.38
2023-05-09T12:48:12.403Z,35.19
2023-05-09T12:50:48.013Z,34.31
2023-05-09T12:53:31.342Z,33.87
2023-05-09T12:56:05.815Z,34.62
2023-05-09T12:58:39.132Z,34.30
2023-05-09T13:01:14.831Z,32.30
2023-05-09T13:04:01.776Z,29.43
2023-05-09T13:06:36.049Z,29.17
2023-05-09T13:09:09.550Z,26.80
2023-05-09T13:11:42.094Z,26.77
2023-05-09T13:14:15.237Z,27.20
2023-05-09T13:16:47.486Z,29.12
2023-05-09T13:19:19.630Z,30.24
2023-05-09T13:21:52.933Z,30.20
2023-05-09T13:24:49.372Z,32.08
2023-05-09T13:27:21.538Z,33.63
2023-05-09T13:29:54.276Z,34.61
2023-05-09T13:32:26.732Z,34.43
2023-05-09T13:35:01.603Z,34.68
2023-05-09T13:37:36.653Z,33.85
2023-05-09T13:40:09.996Z,33.65
2023-05-09T13:42:42.234Z,32.84
2023-05-09T13:45:14.470Z,33.74
2023-05-09T13:47:46.758Z,35.42
2023-05-09T13:50:19.063Z,36.12
2023-05-09T13:52:51.143Z,35.34
2023-05-09T13:55:23.254Z,35.70
2023-05-09T13:57:58.544Z,34.27
2023-05-09T14:00:30.775Z,34.24
2023-05-09T14:03:03.518Z,34.15
2023-05-09T14:05:35.638Z,34.29
2023-05-09T14:08:08.134Z,33.28
2023-05-09T14:10:40.295Z,32.10
2023-05-09T14:13:12.856Z,32.53
2023-05-09T14:15:45.087Z,33.07
2023-05-09T14:18:20.142Z,34.37
2023-05-09T14:20:53.089Z,34.23
2023-05-09T14:23:25.307Z,34.96
2023-05-09T14:25:57.593Z,35.43
2023-05-09T14:28:29.718Z,35.82
2023-05-09T14:31:01.875Z,36.06
2023-05-09T14:33:36.137Z,37.12
2023-05-09T14:36:08.338Z,36.87
2023-05-09T14:38:41.713Z,36.01
2023-05-09T14:41:16.892Z,37.16
2023-05-09T14:43:49.253Z,37.05
2023-05-09T14:46:21.529Z,37.37
2023-05-09T14:48:54.227Z,36.88
2023-05-09T14:51:26.278Z,37.62
2023-05-09T14:54:01.664Z,37.25
2023-05-09T14:56:35.616Z,37.34
2023-05-09T14:59:07.786Z,37.66
2023-05-09T15:01:40.070Z,38.04
2023-05-09T15:04:12.476Z,37.39
2023-05-09T15:06:45.601Z,37.42
2023-05-09T15:09:19.506Z,37.72
2023-05-09T15:11:51.757Z,37.30
2023-05-09T15:14:23.850Z,37.31
2023-05-09T15:16:59.329Z,37.41
2023-05-09T15:19:32.635Z,36.83
2023-05-09T15:22:06.249Z,37.59
2023-05-09T15:24:38.379Z,37.40
2023-05-09T15:27:10.901Z,37.93
2023-05-09T15:29:42.990Z,37.96
2023-05-09T15:32:15.077Z,37.80
2023-05-09T15:34:47.566Z,37.20
2023-05-09T15:37:19.656Z,37.67
2023-05-09T15:39:52.379Z,38.33
2023-05-09T15:42:25.467Z,38.38
2023-05-09T15:44:57.599Z,37.90
2023-05-09T15:47:30.120Z,38.52
2023-05-09T15:50:02.235Z,38.39
2023-05-09T15:52:34.492Z,37.90
2023-05-09T15:55:08.807Z,37.61
2023-05-09T15:57:41.072Z,37.88
2023-05-09T16:00:16.691Z,37.85
2023-05-09T16:02:49.242Z,37.98
2023-05-09T16:05:21.525Z,37.83
2023-05-09T16:07:56.554Z,37.88
2023-05-09T16:10:28.790Z,38.49
2023-05-09T16:13:01.853Z,38.28
2023-05-09T16:15:34.272Z,38.17
2023-05-09T16:18:06.695Z,38.27
2023-05-09T16:20:38.971Z,37.93
2023-05-09T16:23:11.978Z,38.20
2023-05-09T16:25:45.142Z,38.98
2023-05-09T16:28:19.668Z,39.45
2023-05-09T16:30:52.014Z,39.10
2023-05-09T16:33:24.206Z,39.20
2023-05-09T16:35:56.720Z,38.99
2023-05-09T16:38:28.829Z,38.34
2023-05-09T16:41:01.048Z,39.69
2023-05-09T16:43:33.252Z,38.80
2023-05-09T16:46:05.401Z,39.76
2023-05-09T16:48:39.038Z,39.91
2023-05-09T16:51:16.538Z,39.51
2023-05-09T16:54:01.483Z,38.74
2023-05-09T16:56:45.650Z,39.51
2023-05-09T16:59:26.781Z,39.85
2023-05-09T17:02:01.090Z,40.14
2023-05-09T17:04:37.773Z,40.73
2023-05-09T17:10:04.497Z,41.01
2023-05-09T17:12:39.793Z,40.86
2023-05-09T17:15:23.497Z,40.98
2023-05-09T17:17:56.276Z,40.90
2023-05-09T17:20:29.410Z,40.66
2023-05-09T17:23:01.843Z,40.86
2023-05-09T17:25:34.332Z,40.85
2023-05-09T17:28:07.841Z,40.06
2023-05-09T17:30:40.204Z,40.90
2023-05-09T17:33:12.946Z,40.99
2023-05-09T17:35:46.002Z,41.39
2023-05-09T17:38:18.365Z,41.74
2023-05-09T17:40:50.771Z,41.55
2023-05-09T17:43:24.294Z,41.71
2023-05-09T17:45:57.083Z,42.33
2023-05-09T17:48:29.511Z,42.53
2023-05-09T17:51:01.916Z,42.50
2023-05-09T17:53:34.431Z,42.24
2023-05-09T17:56:06.839Z,42.55
2023-05-09T17:58:39.319Z,42.33
2023-05-09T18:01:14.294Z,42.15
2023-05-09T18:03:47.029Z,42.28
2023-05-09T18:06:19.602Z,42.18
2023-05-09T18:08:51.960Z,42.09
2023-05-09T18:11:24.849Z,42.31
2023-05-09T18:13:57.155Z,43.64
2023-05-09T18:16:29.820Z,43.14
2023-05-09T18:19:02.330Z,43.83
2023-05-09T18:21:34.887Z,43.45
2023-05-09T18:24:09.340Z,44.43
2023-05-09T18:26:41.706Z,44.06
2023-05-09T18:29:14.221Z,43.62
2023-05-09T18:31:46.852Z,43.02
2023-05-09T18:34:19.179Z,42.22
2023-05-09T18:36:52.775Z,41.55
2023-05-09T18:39:25.052Z,41.59
2023-05-09T18:41:57.658Z,41.37
2023-05-09T18:44:30.545Z,40.64
2023-05-09T18:47:03.069Z,40.94
2023-05-09T18:49:35.321Z,40.84
2023-05-09T18:52:07.541Z,41.39
2023-05-09T18:54:41.493Z,47.18
2023-05-09T18:57:13.994Z,59.35
2023-05-09T18:59:46.625Z,64.05
2023-05-09T19:02:21.030Z,68.75
2023-05-09T19:04:53.467Z,69.21
2023-05-09T19:07:25.915Z,75.20
2023-05-09T19:09:58.372Z,79.75
2023-05-09T19:12:35.660Z,82.95
2023-05-09T19:15:08.800Z,85.99
2023-05-09T19:17:44.823Z,86.63
2023-05-09T19:20:17.457Z,87.68
2023-05-09T19:22:51.707Z,87.93
2023-05-09T19:25:24.900Z,88.68
2023-05-09T19:27:57.415Z,89.83
2023-05-09T19:30:29.722Z,90.26
2023-05-09T19:33:02.080Z,91.05
2023-05-09T19:35:34.322Z,91.49
2023-05-09T19:38:06.675Z,91.46
2023-05-09T19:40:40.008Z,90.61
2023-05-09T19:43:12.475Z,91.27
2023-05-09T19:45:47.976Z,91.63
2023-05-09T19:48:20.333Z,90.56
2023-05-09T19:50:58.604Z,91.66
2023-05-09T19:53:30.979Z,91.84
2023-05-09T19:56:03.235Z,91.66
2023-05-09T19:58:35.666Z,90.27
2023-05-09T20:01:08.113Z,90.32
2023-05-09T20:03:42.534Z,90.34
2023-05-09T20:06:14.775Z,90.70
2023-05-09T20:08:47.381Z,91.09
2023-05-09T20:11:19.801Z,91.02
2023-05-09T20:13:52.299Z,90.66
2023-05-09T20:16:25.129Z,90.67
2023-05-09T20:18:58.863Z,90.60
2023-05-09T20:21:31.334Z,90.13
2023-05-09T20:24:03.974Z,90.41
2023-05-09T20:26:36.216Z,90.45
2023-05-09T20:29:08.723Z,90.17
2023-05-09T20:31:41.834Z,90.97
2023-05-09T20:34:18.007Z,90.10
2023-05-09T20:36:53.823Z,90.38
2023-05-09T20:39:27.131Z,90.57
2023-05-09T20:42:02.588Z,90.83
2023-05-09T20:44:35.026Z,90.94
2023-05-09T20:47:07.512Z,91.32
2023-05-09T20:49:39.715Z,90.73
2023-05-09T20:52:14.762Z,90.38
2023-05-09T20:54:47.772Z,90.64
2023-05-09T20:57:20.071Z,90.87
2023-05-09T20:59:52.275Z,90.55
2023-05-09T21:02:24.648Z,91.34
2023-05-09T21:04:57.045Z,91.13
2023-05-09T21:07:29.299Z,89.73
2023-05-09T21:10:01.722Z,90.27
2023-05-09T21:12:33.941Z,89.40
2023-05-09T21:15:07.210Z,88.40
2023-05-09T21:17:39.656Z,88.53
2023-05-09T21:20:12.533Z,88.20
2023-05-09T21:22:44.853Z,88.71
2023-05-09T21:25:17.794Z,89.17
2023-05-09T21:27:50.509Z,89.37
2023-05-09T21:30:22.800Z,89.34
2023-05-09T21:32:55.057Z,89.12
2023-05-09T21:35:27.334Z,89.92
2023-05-09T21:37:59.684Z,90.29
2023-05-09T21:40:32.033Z,89.79
2023-05-09T21:43:04.400Z,89.88
2023-05-09T21:45:36.779Z,88.79
2023-05-09T21:48:09.041Z,89.23
2023-05-09T21:50:44.714Z,89.08
2023-05-09T21:53:17.027Z,88.59
2023-05-09T21:55:51.149Z,89.11
2023-05-09T21:58:23.527Z,88.67
2023-05-09T22:00:56.007Z,88.76
2023-05-09T22:03:28.358Z,88.98
2023-05-09T22:06:00.821Z,88.80
2023-05-09T22:08:33.045Z,89.12
2023-05-09T22:11:08.097Z,88.69
2023-05-09T22:13:40.440Z,88.37
2023-05-09T22:16:13.547Z,87.98
2023-05-09T22:18:45.766Z,88.46
2023-05-09T22:21:17.995Z,88.77
2023-05-09T22:23:50.359Z,88.74
2023-05-09T22:26:22.710Z,89.11
2023-05-09T22:28:55.020Z,88.88
2023-05-09T22:31:27.408Z,88.84
2023-05-09T22:33:59.735Z,88.60
2023-05-09T22:36:32.450Z,88.22
2023-05-09T22:39:04.705Z,87.95
2023-05-09T22:41:36.954Z,86.88
2023-05-09T22:44:09.889Z,86.29
2023-05-09T22:46:42.141Z,85.63
2023-05-09T22:49:14.555Z,84.54
2023-05-09T22:51:47.008Z,84.50
2023-05-09T22:54:21.563Z,82.86
2023-05-09T22:56:53.879Z,81.02
2023-05-09T22:59:26.753Z,79.53
2023-05-09T23:01:59.778Z,78.54
2023-05-09T23:04:32.132Z,77.38
2023-05-09T23:07:04.410Z,76.53
2023-05-09T23:09:36.639Z,72.74
2023-05-09T23:12:12.012Z,70.99
2023-05-09T23:14:44.242Z,70.58
2023-05-09T23:17:16.742Z,70.00
2023-05-09T23:19:48.952Z,67.96
2023-05-09T23:22:21.652Z,65.97
2023-05-09T23:24:53.938Z,66.17
2023-05-09T23:27:26.622Z,65.71
2023-05-09T23:29:58.799Z,63.36
2023-05-09T23:32:31.378Z,59.45
2023-05-09T23:35:04.544Z,54.72
2023-05-09T23:37:36.920Z,51.43
2023-05-09T23:40:09.844Z,52.40
2023-05-09T23:42:42.204Z,49.92
2023-05-09T23:45:14.476Z,49.38
2023-05-09T23:47:46.720Z,46.08
2023-05-09T23:50:19.224Z,44.10
2023-05-09T23:52:51.444Z,44.95
2023-05-09T23:55:23.623Z,43.52
2023-05-09T23:57:55.810Z,42.76
